createdAt,value
2023-05-12T00:01:17.537Z,89.80
2023-05-12T00:03:44.556Z,90.10
2023-05-12T00:06:12.357Z,89.90
2023-05-12T00:08:39.138Z,89.90
2023-05-12T00:11:06.085Z,90.20
2023-05-12T00:13:32.930Z,90.20
2023-05-12T00:15:59.994Z,90.40
2023-05-12T00:18:28.490Z,90.80
2023-05-12T00:20:55.634Z,90.60
2023-05-12T00:23:22.980Z,90.50
2023-05-12T00:25:50.585Z,90.70
2023-05-12T00:28:18.767Z,91.10
2023-05-12T00:30:45.880Z,91.30
2023-05-12T00:33:12.856Z,91.00
2023-05-12T00:35:39.640Z,91.20
2023-05-12T00:38:06.577Z,91.40
2023-05-12T00:40:33.440Z,91.40
2023-05-12T00:43:00.522Z,91.50
2023-05-12T00:45:30.013Z,91.70
2023-05-12T00:47:57.362Z,91.90
2023-05-12T00:50:24.587Z,91.80
2023-05-12T00:52:52.676Z,91.90
2023-05-12T00:55:19.716Z,91.70
2023-05-12T00:57:46.713Z,91.70
2023-05-12T01:00:14.935Z,92.00
2023-05-12T01:02:43.462Z,92.00
2023-05-12T01:05:10.889Z,92.40
2023-05-12T01:07:39.593Z,92.60
2023-05-12T01:10:21.462Z,92.40
2023-05-12T01:12:48.622Z,91.90
2023-05-12T01:15:15.840Z,91.90
2023-05-12T01:17:50.861Z,91.90
2023-05-12T01:20:21.670Z,91.50
2023-05-12T01:22:49.695Z,91.30
2023-05-12T01:25:19.417Z,91.80
2023-05-12T01:27:46.842Z,91.70
2023-05-12T01:30:18.154Z,92.00
2023-05-12T01:32:45.478Z,91.90
2023-05-12T01:35:12.661Z,91.90
2023-05-12T01:37:46.305Z,91.80
2023-05-12T01:40:13.398Z,91.80
2023-05-12T01:42:42.215Z,92.10
2023-05-12T01:45:11.321Z,91.90
2023-05-12T01:47:38.470Z,92.10
2023-05-12T01:50:07.939Z,92.00
2023-05-12T01:52:34.929Z,92.00
2023-05-12T01:55:02.279Z,92.20
2023-05-12T01:57:35.904Z,92.10
2023-05-12T02:00:02.985Z,91.90
2023-05-12T02:02:42.772Z,92.00
2023-05-12T02:05:11.592Z,92.10
2023-05-12T02:07:38.524Z,92.30
2023-05-12T02:10:06.880Z,92.40
2023-05-12T02:12:34.626Z,92.10
2023-05-12T02:15:01.585Z,92.40
2023-05-12T02:17:29.986Z,92.50
2023-05-12T02:20:00.016Z,92.60
2023-05-12T02:22:27.023Z,92.60
2023-05-12T02:24:53.946Z,92.50
2023-05-12T02:27:21.080Z,92.60
2023-05-12T02:29:47.928Z,92.50
2023-05-12T02:32:15.911Z,92.90
2023-05-12T02:34:46.043Z,92.80
2023-05-12T02:37:13.557Z,92.70
2023-05-12T02:39:40.969Z,92.20
2023-05-12T02:42:07.890Z,92.40
2023-05-12T02:44:34.910Z,92.50
2023-05-12T02:47:01.878Z,92.60
2023-05-12T02:49:30.299Z,92.90
2023-05-12T02:51:57.200Z,92.80
2023-05-12T02:54:24.034Z,92.60
2023-05-12T02:56:51.250Z,92.70
2023-05-12T02:59:18.154Z,92.70
2023-05-12T03:01:44.929Z,92.50
2023-05-12T03:04:11.710Z,92.70
2023-05-12T03:06:38.557Z,92.70
2023-05-12T03:09:05.375Z,92.70
2023-05-12T03:11:32.266Z,92.70
2023-05-12T03:13:59.088Z,92.90
2023-05-12T03:16:26.531Z,92.60
2023-05-12T03:18:53.713Z,92.50
2023-05-12T03:21:20.780Z,92.50
2023-05-12T03:23:47.662Z,92.60
2023-05-12T03:26:14.485Z,92.50
2023-05-12T03:28:41.401Z,92.70
2023-05-12T03:31:08.393Z,92.80
2023-05-12T03:33:35.451Z,92.60
2023-05-12T03:36:02.329Z,92.80
2023-05-12T03:38:29.374Z,93.00
2023-05-12T03:41:06.578Z,93.10
2023-05-12T03:43:34.694Z,92.70
2023-05-12T03:46:01.902Z,92.90
2023-05-12T03:48:28.979Z,92.70
2023-05-12T03:50:56.553Z,92.70
2023-05-12T03:53:23.484Z,92.90
2023-05-12T03:55:51.142Z,93.00
2023-05-12T03:58:18.314Z,93.00
2023-05-12T04:00:46.693Z,92.90
2023-05-12T04:03:13.647Z,92.80
2023-05-12T04:05:41.315Z,92.70
2023-05-12T04:08:08.539Z,92.90
2023-05-12T04:10:40.269Z,93.10
2023-05-12T04:13:08.200Z,92.90
2023-05-12T04:15:35.820Z,92.80
2023-05-12T04:18:03.867Z,92.30
2023-05-12T04:20:30.774Z,92.50
2023-05-12T04:22:57.645Z,92.80
2023-05-12T04:25:24.625Z,92.70
2023-05-12T04:27:51.395Z,92.50
2023-05-12T04:30:18.535Z,92.70
2023-05-12T04:32:45.894Z,92.80
2023-05-12T04:35:12.798Z,93.00
2023-05-12T04:37:39.704Z,92.90
2023-05-12T04:40:08.204Z,92.80
2023-05-12T04:42:35.817Z,92.70
2023-05-12T04:45:02.612Z,93.10
2023-05-12T04:47:29.782Z,93.20
2023-05-12T04:49:57.063Z,93.00
2023-05-12T04:52:24.963Z,92.60
2023-05-12T04:54:52.165Z,93.10
2023-05-12T04:57:19.167Z,93.00
2023-05-12T04:59:45.980Z,92.90
2023-05-12T05:02:12.875Z,93.00
2023-05-12T05:04:39.747Z,93.00
2023-05-12T05:07:06.734Z,93.20
2023-05-12T05:09:36.086Z,93.10
2023-05-12T05:12:03.338Z,93.10
2023-05-12T05:14:30.255Z,93.20
2023-05-12T05:16:57.824Z,93.50
2023-05-12T05:19:36.451Z,93.30
2023-05-12T05:22:12.281Z,93.20
2023-05-12T05:24:39.103Z,93.70
2023-05-12T05:27:06.205Z,93.30
2023-05-12T05:29:33.062Z,93.00
2023-05-12T05:31:59.956Z,93.10
2023-05-12T05:34:27.205Z,93.50
2023-05-12T05:36:55.027Z,93.30
2023-05-12T05:39:22.560Z,93.00
2023-05-12T05:41:49.389Z,93.20
2023-05-12T05:44:16.249Z,93.70
2023-05-12T05:46:43.089Z,93.70
2023-05-12T05:49:10.105Z,93.70
2023-05-12T05:51:36.983Z,93.80
2023-05-12T05:54:04.040Z,93.70
2023-05-12T05:56:32.698Z,93.70
2023-05-12T05:59:03.126Z,93.90
2023-05-12T06:01:30.603Z,94.00
2023-05-12T06:03:57.941Z,93.50
2023-05-12T06:06:25.066Z,93.50
2023-05-12T06:08:51.916Z,93.80
2023-05-12T06:11:18.754Z,94.10
2023-05-12T06:13:45.618Z,94.10
2023-05-12T06:16:12.554Z,93.60
2023-05-12T06:18:39.553Z,93.10
2023-05-12T06:21:06.570Z,92.50
2023-05-12T06:23:33.482Z,92.50
2023-05-12T06:26:00.331Z,92.40
2023-05-12T06:28:28.160Z,92.20
2023-05-12T06:30:55.724Z,91.60
2023-05-12T06:33:22.554Z,91.50
2023-05-12T06:35:50.636Z,92.10
2023-05-12T06:38:17.452Z,92.40
2023-05-12T06:40:44.845Z,92.70
2023-05-12T06:43:12.059Z,92.10
2023-05-12T06:45:38.915Z,92.40
2023-05-12T06:48:09.552Z,93.20
2023-05-12T06:50:36.499Z,93.20
2023-05-12T06:53:03.553Z,92.80
2023-05-12T06:55:30.334Z,93.00
2023-05-12T06:57:57.221Z,93.70
2023-05-12T07:00:25.071Z,92.40
2023-05-12T07:02:52.533Z,92.50
2023-05-12T07:05:20.013Z,92.70
2023-05-12T07:07:46.986Z,92.40
2023-05-12T07:10:14.041Z,92.80
2023-05-12T07:12:42.134Z,92.90
2023-05-12T07:15:10.381Z,93.40
2023-05-12T07:17:37.936Z,92.10
2023-05-12T07:20:05.703Z,91.10
2023-05-12T07:22:32.768Z,90.10
2023-05-12T07:24:59.882Z,90.80
2023-05-12T07:27:26.962Z,91.40
2023-05-12T07:29:54.078Z,90.30
2023-05-12T07:32:20.813Z,90.30
2023-05-12T07:34:47.539Z,89.50
2023-05-12T07:37:14.481Z,90.50
2023-05-12T07:39:41.259Z,90.30
2023-05-12T07:42:08.926Z,89.90
2023-05-12T07:44:36.251Z,88.90
2023-05-12T07:47:03.174Z,89.70
2023-05-12T07:49:29.928Z,89.40
2023-05-12T07:51:56.733Z,89.30
2023-05-12T07:54:23.526Z,89.40
2023-05-12T07:56:50.552Z,89.20
2023-05-12T07:59:17.666Z,90.10
2023-05-12T08:01:44.540Z,89.50
2023-05-12T08:04:12.115Z,89.90
2023-05-12T08:06:38.972Z,88.70
2023-05-12T08:09:05.769Z,87.50
2023-05-12T08:11:32.654Z,89.00
2023-05-12T08:13:59.517Z,89.40
2023-05-12T08:16:26.517Z,88.70
2023-05-12T08:18:53.412Z,90.10
2023-05-12T08:21:20.423Z,90.80
2023-05-12T08:23:47.311Z,90.90
2023-05-12T08:26:14.071Z,91.00
2023-05-12T08:28:40.848Z,93.10
2023-05-12T08:31:07.920Z,94.00
2023-05-12T08:33:36.185Z,98.80
2023-05-12T08:36:03.303Z,99.90
2023-05-12T08:38:30.284Z,99.90
2023-05-12T08:41:20.036Z,96.80
2023-05-12T08:43:51.174Z,88.80
2023-05-12T08:46:18.544Z,90.00
2023-05-12T08:48:50.822Z,88.90
2023-05-12T08:51:19.047Z,86.30
2023-05-12T08:53:47.655Z,88.10
2023-05-12T08:58:49.715Z,86.20
2023-05-12T09:01:17.437Z,85.00
2023-05-12T09:03:44.498Z,82.90
2023-05-12T09:06:12.044Z,82.20
2023-05-12T09:08:40.678Z,82.10
2023-05-12T09:11:11.495Z,82.20
2023-05-12T09:14:25.862Z,83.60
2023-05-12T09:16:59.885Z,80.50
2023-05-12T09:19:26.950Z,85.20
2023-05-12T09:21:54.306Z,86.10
2023-05-12T09:24:22.376Z,82.90
2023-05-12T09:26:53.776Z,80.20
2023-05-12T09:29:31.481Z,79.70
2023-05-12T09:32:04.635Z,80.90
2023-05-12T09:34:38.580Z,78.00
2023-05-12T09:37:07.311Z,79.50
2023-05-12T09:39:34.725Z,79.60
2023-05-12T09:42:01.651Z,76.50
2023-05-12T09:44:31.521Z,75.60
2023-05-12T09:47:07.461Z,74.40
2023-05-12T09:49:34.334Z,70.40
2023-05-12T09:52:01.322Z,75.60
2023-05-12T09:54:29.923Z,74.20
2023-05-12T09:57:04.924Z,73.50
2023-05-12T09:59:34.821Z,72.50
2023-05-12T10:02:05.402Z,74.50
2023-05-12T10:04:43.354Z,72.70
2023-05-12T10:07:15.780Z,72.60
2023-05-12T10:09:44.315Z,74.40
2023-05-12T10:12:11.807Z,73.50
2023-05-12T10:14:38.953Z,72.60
2023-05-12T10:17:07.043Z,73.00
2023-05-12T10:19:35.995Z,69.00
2023-05-12T10:22:04.000Z,70.80
2023-05-12T10:24:30.886Z,70.60
2023-05-12T10:26:59.360Z,71.60
2023-05-12T10:29:30.447Z,70.90
2023-05-12T10:31:58.334Z,68.20
2023-05-12T10:34:34.713Z,68.00
2023-05-12T10:37:04.326Z,64.40
2023-05-12T10:39:32.877Z,65.90
2023-05-12T10:42:06.537Z,65.30
2023-05-12T10:44:33.487Z,64.50
2023-05-12T10:47:00.739Z,68.20
2023-05-12T10:49:38.965Z,70.30
2023-05-12T10:52:07.499Z,67.30
2023-05-12T10:54:46.807Z,69.80
2023-05-12T10:57:18.424Z,68.30
2023-05-12T11:00:13.957Z,69.90
2023-05-12T11:02:51.440Z,68.30
2023-05-12T11:05:20.185Z,66.80
2023-05-12T11:07:50.914Z,70.70
2023-05-12T11:10:19.898Z,67.20
2023-05-12T11:12:47.650Z,64.50
2023-05-12T11:15:16.013Z,67.00
2023-05-12T11:17:46.184Z,66.70
2023-05-12T11:20:26.714Z,68.10
2023-05-12T11:22:55.107Z,63.00
2023-05-12T11:25:22.135Z,66.10
2023-05-12T11:27:53.261Z,66.10
2023-05-12T11:30:20.252Z,65.00
2023-05-12T11:32:47.377Z,65.30
2023-05-12T11:35:19.610Z,65.60
2023-05-12T11:37:46.932Z,63.80
2023-05-12T11:40:18.963Z,66.00
2023-05-12T11:42:48.883Z,63.90
2023-05-12T11:45:21.676Z,64.60
2023-05-12T11:47:48.790Z,63.40
2023-05-12T11:50:25.829Z,65.50
2023-05-12T11:52:53.287Z,61.20
2023-05-12T11:55:23.319Z,64.10
2023-05-12T11:57:58.749Z,60.50
2023-05-12T12:00:34.497Z,58.90
2023-05-12T12:03:15.262Z,58.30
2023-05-12T12:05:45.295Z,55.70
2023-05-12T12:08:14.458Z,56.90
2023-05-12T12:10:45.772Z,57.30
2023-05-12T12:13:19.345Z,56.30
2023-05-12T12:15:46.225Z,56.60
2023-05-12T12:18:13.104Z,57.10
2023-05-12T12:20:40.073Z,55.10
2023-05-12T12:23:06.924Z,56.80
2023-05-12T12:25:33.819Z,57.90
2023-05-12T12:28:00.769Z,57.60
2023-05-12T12:30:27.910Z,55.20
2023-05-12T12:32:54.904Z,54.30
2023-05-12T12:35:22.365Z,54.90
2023-05-12T12:37:51.952Z,51.70
2023-05-12T12:40:20.056Z,51.40
2023-05-12T12:42:47.147Z,52.10
2023-05-12T12:45:14.003Z,52.40
2023-05-12T12:47:40.974Z,52.40
2023-05-12T12:50:10.032Z,50.50
2023-05-12T12:52:38.315Z,49.90
2023-05-12T12:55:06.574Z,53.10
2023-05-12T12:57:33.433Z,52.60
2023-05-12T13:00:00.413Z,51.70
2023-05-12T13:02:27.716Z,50.10
2023-05-12T13:04:54.505Z,49.70
2023-05-12T13:07:21.798Z,50.10
2023-05-12T13:09:48.701Z,49.10
2023-05-12T13:12:15.558Z,49.70
2023-05-12T13:14:42.506Z,51.70
2023-05-12T13:17:09.295Z,53.40
2023-05-12T13:19:38.035Z,53.70
2023-05-12T13:22:05.470Z,52.00
2023-05-12T13:24:32.989Z,48.50
2023-05-12T13:27:00.147Z,49.40
2023-05-12T13:29:27.084Z,49.50
2023-05-12T13:31:54.563Z,50.10
2023-05-12T13:34:21.331Z,54.30
2023-05-12T13:36:48.534Z,56.80
2023-05-12T13:39:16.065Z,55.70
2023-05-12T13:41:43.836Z,53.70
2023-05-12T13:44:10.816Z,53.00
2023-05-12T13:46:37.599Z,53.00
2023-05-12T13:49:04.440Z,52.80
2023-05-12T13:51:32.403Z,54.10
2023-05-12T13:53:59.207Z,54.90
2023-05-12T13:56:26.084Z,58.30
2023-05-12T13:58:52.890Z,59.70
2023-05-12T14:01:19.907Z,58.00
2023-05-12T14:03:46.751Z,59.20
2023-05-12T14:06:13.547Z,56.80
2023-05-12T14:08:41.586Z,57.20
2023-05-12T14:11:08.976Z,55.80
2023-05-12T14:13:35.794Z,54.50
2023-05-12T14:16:02.687Z,54.80
2023-05-12T14:18:29.536Z,56.20
2023-05-12T14:20:57.261Z,55.60
2023-05-12T14:23:24.602Z,57.60
2023-05-12T14:25:51.401Z,55.70
2023-05-12T14:28:18.481Z,54.00
2023-05-12T14:30:45.717Z,53.50
2023-05-12T14:33:12.667Z,52.50
2023-05-12T14:35:39.539Z,53.20
2023-05-12T14:38:06.705Z,55.20
2023-05-12T14:40:33.611Z,57.50
2023-05-12T14:43:00.491Z,58.40
2023-05-12T14:45:28.897Z,57.60
2023-05-12T14:47:55.747Z,55.40
2023-05-12T14:50:23.301Z,53.60
2023-05-12T14:52:50.460Z,53.80
2023-05-12T14:55:17.619Z,54.20
2023-05-12T14:57:45.245Z,54.70
2023-05-12T15:00:15.160Z,54.50
2023-05-12T15:02:45.510Z,56.60
2023-05-12T15:05:13.566Z,55.70
2023-05-12T15:07:40.797Z,55.90
2023-05-12T15:10:08.325Z,58.20
2023-05-12T15:12:35.426Z,59.80
2023-05-12T15:15:05.234Z,60.80
2023-05-12T15:17:32.433Z,60.10
2023-05-12T15:19:59.340Z,58.20
2023-05-12T15:22:26.511Z,56.40
2023-05-12T15:24:53.353Z,56.20
2023-05-12T15:27:20.192Z,55.20
2023-05-12T15:29:47.163Z,54.90
2023-05-12T15:32:13.961Z,55.50
2023-05-12T15:34:40.801Z,55.80
2023-05-12T15:37:07.891Z,57.50
2023-05-12T15:39:34.757Z,57.50
2023-05-12T15:42:01.935Z,59.20
2023-05-12T15:44:28.883Z,57.70
2023-05-12T15:46:55.803Z,59.40
2023-05-12T15:49:22.826Z,57.70
2023-05-12T15:51:49.769Z,57.00
2023-05-12T15:54:16.646Z,57.40
2023-05-12T15:56:43.532Z,58.60
2023-05-12T15:59:12.134Z,58.00
2023-05-12T16:01:39.207Z,57.80
2023-05-12T16:04:06.956Z,56.40
2023-05-12T16:06:33.909Z,55.00
2023-05-12T16:09:00.992Z,57.00
2023-05-12T16:11:28.434Z,56.50
2023-05-12T16:13:57.205Z,53.50
2023-05-12T16:16:24.307Z,54.40
2023-05-12T16:18:51.258Z,55.80
2023-05-12T16:21:18.153Z,53.70
2023-05-12T16:23:44.961Z,50.50
2023-05-12T16:26:11.817Z,50.80
2023-05-12T16:28:38.636Z,47.30
2023-05-12T16:31:05.577Z,51.20
2023-05-12T16:33:32.372Z,53.50
2023-05-12T16:35:59.160Z,56.00
2023-05-12T16:38:26.081Z,58.00
2023-05-12T16:40:52.970Z,59.80
2023-05-12T16:43:19.865Z,60.90
2023-05-12T16:45:46.746Z,61.90
2023-05-12T16:48:13.546Z,62.90
2023-05-12T16:50:40.351Z,63.00
2023-05-12T16:53:07.119Z,63.70
2023-05-12T16:55:33.854Z,64.80
2023-05-12T16:58:01.564Z,65.20
2023-05-12T17:00:28.418Z,65.70
2023-05-12T17:02:55.235Z,66.10
2023-05-12T17:05:22.311Z,66.30
2023-05-12T17:07:49.351Z,66.50
2023-05-12T17:10:16.349Z,66.40
2023-05-12T17:12:43.228Z,66.60
2023-05-12T17:15:11.354Z,66.50
2023-05-12T17:17:38.226Z,66.10
2023-05-12T17:20:06.118Z,65.70
2023-05-12T17:22:34.937Z,65.60
2023-05-12T17:25:01.806Z,65.50
2023-05-12T17:27:28.594Z,63.70
2023-05-12T17:29:56.680Z,64.10
2023-05-12T17:32:23.528Z,64.40
2023-05-12T17:34:51.119Z,64.80
2023-05-12T17:37:18.170Z,65.10
2023-05-12T17:39:44.936Z,65.20
2023-05-12T17:42:11.797Z,65.10
2023-05-12T17:44:38.654Z,65.30
2023-05-12T17:47:05.764Z,65.20
2023-05-12T17:49:32.667Z,64.70
2023-05-12T17:51:59.453Z,64.80
2023-05-12T17:54:26.305Z,65.50
2023-05-12T17:56:53.081Z,65.00
2023-05-12T17:59:19.852Z,64.60
2023-05-12T18:01:46.753Z,65.50
2023-05-12T18:04:13.964Z,64.60
2023-05-12T18:06:41.007Z,64.60
2023-05-12T18:09:08.894Z,65.60
2023-05-12T18:11:35.851Z,65.60
2023-05-12T18:14:05.740Z,65.40
2023-05-12T18:16:33.323Z,65.90
2023-05-12T18:19:00.509Z,66.60
2023-05-12T18:21:27.515Z,66.90
2023-05-12T18:23:54.375Z,65.20
2023-05-12T18:26:21.532Z,63.80
2023-05-12T18:28:48.661Z,66.30
2023-05-12T18:31:16.750Z,65.90
2023-05-12T18:33:47.590Z,67.10
2023-05-12T18:36:14.920Z,68.00
2023-05-12T18:38:42.395Z,67.90
2023-05-12T18:41:09.500Z,67.90
2023-05-12T18:43:36.593Z,68.50
2023-05-12T18:46:04.317Z,69.00
2023-05-12T18:48:31.407Z,68.70
2023-05-12T18:50:58.480Z,69.10
2023-05-12T18:53:25.458Z,69.90
2023-05-12T18:55:52.294Z,70.30
2023-05-12T18:58:19.017Z,70.40
2023-05-12T19:00:45.850Z,70.30
2023-05-12T19:03:12.764Z,70.40
2023-05-12T19:05:44.559Z,70.60
2023-05-12T19:08:12.613Z,70.40
2023-05-12T19:10:40.200Z,70.20
2023-05-12T19:13:07.273Z,70.40
2023-05-12T19:15:34.288Z,70.40
2023-05-12T19:18:01.157Z,70.80
2023-05-12T19:20:29.102Z,71.00
2023-05-12T19:22:56.030Z,71.30
2023-05-12T19:25:23.127Z,71.40
2023-05-12T19:27:50.932Z,71.60
2023-05-12T19:30:17.936Z,72.00
2023-05-12T19:32:46.257Z,72.20
2023-05-12T19:35:16.695Z,72.30
2023-05-12T19:37:43.840Z,72.20
2023-05-12T19:40:11.438Z,72.20
2023-05-12T19:42:38.265Z,72.40
2023-05-12T19:45:05.800Z,72.40
2023-05-12T19:47:33.400Z,72.40
2023-05-12T19:50:00.586Z,72.60
2023-05-12T19:52:30.797Z,72.90
2023-05-12T19:54:57.752Z,73.10
2023-05-12T19:57:24.633Z,73.40
2023-05-12T19:59:51.391Z,73.40
2023-05-12T20:02:18.583Z,73.70
2023-05-12T20:04:45.557Z,73.90
2023-05-12T20:07:12.364Z,74.10
2023-05-12T20:09:39.219Z,74.20
2023-05-12T20:12:08.048Z,74.20
2023-05-12T20:14:36.201Z,74.20
2023-05-12T20:17:05.635Z,74.40
2023-05-12T20:19:33.344Z,74.50
2023-05-12T20:22:00.246Z,74.70
2023-05-12T20:24:27.544Z,74.70
2023-05-12T20:26:54.670Z,74.80
2023-05-12T20:29:21.668Z,74.90
2023-05-12T20:31:50.081Z,75.00
2023-05-12T20:34:17.810Z,75.00
2023-05-12T20:36:45.491Z,75.00
2023-05-12T20:39:13.805Z,75.10
2023-05-12T20:41:41.582Z,75.00
2023-05-12T20:44:08.755Z,74.80
2023-05-12T20:46:38.206Z,75.10
2023-05-12T20:49:08.364Z,75.10
2023-05-12T20:51:35.226Z,74.90
2023-05-12T20:54:02.069Z,75.20
2023-05-12T20:56:29.118Z,74.90
2023-05-12T20:58:57.590Z,75.00
2023-05-12T21:01:24.520Z,75.10
2023-05-12T21:03:51.350Z,74.90
2023-05-12T21:06:18.309Z,75.00
2023-05-12T21:08:46.654Z,75.00
2023-05-12T21:11:16.016Z,75.00
2023-05-12T21:13:43.866Z,74.90
2023-05-12T21:16:11.194Z,74.90
2023-05-12T21:18:38.472Z,74.80
2023-05-12T21:21:06.511Z,74.80
2023-05-12T21:23:34.671Z,74.80
2023-05-12T21:26:01.653Z,74.60
2023-05-12T21:28:28.563Z,74.90
2023-05-12T21:30:55.437Z,75.00
2023-05-12T21:33:22.440Z,74.70
2023-05-12T21:35:52.283Z,74.80
2023-05-12T21:38:20.677Z,74.80
2023-05-12T21:40:56.320Z,74.70
2023-05-12T21:43:23.293Z,75.10
2023-05-12T21:45:50.394Z,75.20
2023-05-12T21:48:17.546Z,75.00
2023-05-12T21:50:44.360Z,74.50
2023-05-12T21:53:11.573Z,74.60
2023-05-12T21:55:40.643Z,74.70
2023-05-12T21:58:07.480Z,74.90
2023-05-12T22:00:34.385Z,74.60
2023-05-12T22:03:01.302Z,74.70
2023-05-12T22:05:28.193Z,74.80
2023-05-12T22:07:55.730Z,74.80
2023-05-12T22:10:22.750Z,74.50
2023-05-12T22:12:50.076Z,74.60
2023-05-12T22:15:18.213Z,74.20
2023-05-12T22:17:49.438Z,74.60
2023-05-12T22:20:17.252Z,74.10
2023-05-12T22:22:44.311Z,74.70
2023-05-12T22:25:11.122Z,75.10
2023-05-12T22:27:38.065Z,75.20
2023-05-12T22:30:06.976Z,75.20
2023-05-12T22:32:34.028Z,75.40
2023-05-12T22:35:00.883Z,75.60
2023-05-12T22:37:27.848Z,75.60
2023-05-12T22:39:54.923Z,75.90
2023-05-12T22:42:21.837Z,75.70
2023-05-12T22:44:49.465Z,75.90
2023-05-12T22:47:16.692Z,75.90
2023-05-12T22:49:43.728Z,75.80
2023-05-12T22:52:10.798Z,75.70
2023-05-12T22:54:37.611Z,75.90
2023-05-12T22:57:04.517Z,75.80
2023-05-12T22:59:31.216Z,75.40
2023-05-12T23:01:57.985Z,75.20
2023-05-12T23:04:24.967Z,75.30
2023-05-12T23:06:51.846Z,74.90
2023-05-12T23:09:18.683Z,75.10
2023-05-12T23:11:45.537Z,74.70
2023-05-12T23:14:12.740Z,74.50
2023-05-12T23:16:39.565Z,74.60
2023-05-12T23:19:06.430Z,74.50
2023-05-12T23:21:33.315Z,74.30
2023-05-12T23:24:00.213Z,74.00
2023-05-12T23:26:27.126Z,74.30
2023-05-12T23:28:54.217Z,74.40
2023-05-12T23:31:21.103Z,74.00
2023-05-12T23:33:47.905Z,74.00
2023-05-12T23:36:14.809Z,74.10
2023-05-12T23:38:41.723Z,74.10
2023-05-12T23:41:08.665Z,74.00
2023-05-12T23:43:35.464Z,74.00
2023-05-12T23:46:02.412Z,73.40
2023-05-12T23:48:30.186Z,73.90
2023-05-12T23:50:57.020Z,73.10
2023-05-12T23:53:23.862Z,73.70
2023-05-12T23:55:50.747Z,73.60
2023-05-12T23:58:17.643Z,73.30
